createdAt,value
2022-11-21T10:22:43.682Z,334
2022-11-21T10:34:04.055Z,178
2022-11-21T10:39:44.544Z,112
2022-11-21T10:45:24.578Z,140
2022-11-21T10:51:07.754Z,106
2022-11-21T10:56:48.022Z,128
2022-11-21T11:02:28.909Z,112
2022-11-21T11:08:09.145Z,76
2022-11-21T11:13:52.089Z,64
2022-11-21T11:19:42.690Z,70
2022-11-21T11:25:22.913Z,86
2022-11-21T11:31:03.643Z,76
2022-11-21T11:36:43.841Z,76
2022-11-21T11:42:24.471Z,86
2022-11-21T11:48:05.924Z,24
2022-11-21T11:53:48.881Z,20
2022-11-21T11:59:30.821Z,50
2022-11-21T12:05:10.995Z,72
2022-11-21T12:10:50.660Z,74
2022-11-21T12:22:11.694Z,24
2022-11-21T12:27:52.132Z,26
2022-11-21T12:33:32.357Z,98
2022-11-21T12:39:14.591Z,70
2022-11-21T12:44:54.649Z,72
2022-11-21T12:50:34.680Z,86
2022-11-21T12:56:14.954Z,78
2022-11-21T13:01:55.736Z,64
2022-11-21T13:07:37.139Z,58
2022-11-21T13:13:17.600Z,94
2022-11-21T13:18:57.787Z,106
2022-11-21T13:24:38.086Z,98
2022-11-21T13:30:18.766Z,94
2022-11-21T13:35:59.202Z,102
2022-11-21T13:41:40.689Z,90
2022-11-21T13:47:21.207Z,106
2022-11-21T13:53:01.575Z,104
2022-11-21T14:03:44.382Z,140
2022-11-21T14:09:25.027Z,106
2022-11-21T14:15:05.451Z,106
2022-11-21T14:20:45.828Z,102
2022-11-21T14:26:28.834Z,94
2022-11-21T14:32:08.957Z,100
2022-11-21T14:37:52.597Z,100
2022-11-21T14:43:32.690Z,108
2022-11-21T14:49:12.835Z,94
2022-11-21T14:55:32.792Z,104
2022-11-21T15:06:53.924Z,94
2022-11-21T15:12:34.749Z,88
2022-11-21T15:18:30.746Z,96
2022-11-21T15:24:11.673Z,104
2022-11-21T15:29:52.750Z,94
2022-11-21T15:35:33.112Z,98
2022-11-21T15:41:13.564Z,98
2022-11-21T15:46:54.139Z,100
2022-11-21T15:52:34.282Z,96
2022-11-21T15:58:18.719Z,100
2022-11-21T16:03:59.692Z,96
2022-11-21T16:09:40.225Z,104
2022-11-21T16:15:20.106Z,100
2022-11-21T16:26:40.715Z,94
2022-11-21T16:32:21.264Z,98
2022-11-21T16:38:02.083Z,82
2022-11-21T16:43:42.390Z,98
2022-11-21T16:49:25.536Z,102
2022-11-21T16:55:05.800Z,96
2022-11-21T17:00:46.817Z,110
2022-11-21T17:06:27.463Z,98
2022-11-21T17:12:08.072Z,110
2022-11-21T17:17:48.330Z,92
2022-11-21T17:23:28.564Z,98
2022-11-21T17:29:08.932Z,90
2022-11-21T17:34:49.162Z,90
2022-11-21T17:40:29.303Z,92
2022-11-21T17:46:11.169Z,86
2022-11-21T17:51:57.362Z,104
2022-11-21T17:57:37.872Z,98
2022-11-21T18:03:18.495Z,94
2022-11-21T18:08:59.031Z,90
2022-11-21T18:20:20.327Z,90
2022-11-21T18:26:00.469Z,94
2022-11-21T18:31:40.300Z,90
2022-11-21T18:37:23.156Z,94
2022-11-21T18:43:05.797Z,92
2022-11-21T18:49:09.142Z,100
2022-11-21T18:54:49.501Z,90
2022-11-21T19:00:29.211Z,100
2022-11-21T19:06:09.441Z,100
2022-11-21T19:11:49.769Z,84
2022-11-21T19:17:29.398Z,102
2022-11-21T19:23:09.317Z,98
2022-11-21T19:28:49.377Z,90
2022-11-21T19:34:29.673Z,86
2022-11-21T19:40:10.069Z,88
2022-11-21T19:45:58.854Z,104
2022-11-21T19:51:39.371Z,92
2022-11-21T19:57:19.798Z,100
2022-11-21T20:03:00.367Z,98
2022-11-21T20:09:02.117Z,94
2022-11-21T20:14:42.390Z,94
2022-11-21T20:20:25.935Z,104
2022-11-21T20:26:08.987Z,104
2022-11-21T20:31:49.740Z,94
2022-11-21T20:37:30.442Z,98
2022-11-21T20:43:10.770Z,102
2022-11-21T20:48:57.181Z,94
2022-11-21T20:54:43.540Z,90
2022-11-21T21:00:23.902Z,104
2022-11-21T21:06:15.810Z,90
2022-11-21T21:11:57.483Z,106
2022-11-21T21:17:42.329Z,86
2022-11-21T21:23:22.643Z,98
2022-11-21T21:29:03.139Z,94
2022-11-21T21:34:43.457Z,94
2022-11-21T21:40:23.696Z,84
2022-11-21T21:46:04.160Z,94
2022-11-21T21:51:44.343Z,102
2022-11-21T21:57:24.623Z,86
2022-11-21T22:03:05.381Z,102
2022-11-21T22:08:45.752Z,96
2022-11-21T22:14:25.829Z,90
2022-11-21T22:20:06.263Z,88
2022-11-21T22:25:47.830Z,94
2022-11-21T22:31:28.127Z,92
2022-11-21T22:37:08.795Z,96
2022-11-21T22:48:29.301Z,98
2022-11-21T22:54:09.716Z,90
2022-11-21T22:59:50.070Z,90
2022-11-21T23:05:30.113Z,98
2022-11-21T23:11:10.262Z,94
2022-11-21T23:16:50.130Z,84
2022-11-21T23:22:30.357Z,84
2022-11-21T23:28:10.713Z,98
2022-11-21T23:33:50.375Z,104
2022-11-21T23:39:32.624Z,106
2022-11-21T23:45:12.679Z,84
2022-11-21T23:50:53.065Z,106
2022-11-21T23:56:33.225Z,98
